sensor_id;sensor_type;location;lat;lon;timestamp;temperature;humidity
19252;DHT22;9760;50.944;5.304;2023-07-09T00:00:48;24.60;99.90
19252;DHT22;9760;50.944;5.304;2023-07-09T00:03:15;24.60;99.90
19252;DHT22;9760;50.944;5.304;2023-07-09T00:05:41;24.60;99.90
19252;DHT22;9760;50.944;5.304;2023-07-09T00:08:28;24.50;99.90
19252;DHT22;9760;50.944;5.304;2023-07-09T00:10:55;24.50;99.90
19252;DHT22;9760;50.944;5.304;2023-07-09T00:13:26;24.50;99.90
19252;DHT22;9760;50.944;5.304;2023-07-09T00:15:53;24.50;99.90
19252;DHT22;9760;50.944;5.304;2023-07-09T00:18:20;24.50;99.90
19252;DHT22;9760;50.944;5.304;2023-07-09T00:20:46;24.30;99.90
19252;DHT22;9760;50.944;5.304;2023-07-09T00:23:14;24.20;99.90
19252;DHT22;9760;50.944;5.304;2023-07-09T00:25:43;24.20;99.90
19252;DHT22;9760;50.944;5.304;2023-07-09T00:28:16;24.20;99.90
19252;DHT22;9760;50.944;5.304;2023-07-09T00:30:44;24.20;99.90
19252;DHT22;9760;50.944;5.304;2023-07-09T00:33:13;24.10;99.90
19252;DHT22;9760;50.944;5.304;2023-07-09T00:35:43;24.00;99.90
19252;DHT22;9760;50.944;5.304;2023-07-09T00:38:20;24.00;99.90
19252;DHT22;9760;50.944;5.304;2023-07-09T00:41:08;23.80;99.90
19252;DHT22;9760;50.944;5.304;2023-07-09T00:43:43;23.80;99.90
19252;DHT22;9760;50.944;5.304;2023-07-09T00:48:59;23.90;99.90
19252;DHT22;9760;50.944;5.304;2023-07-09T00:51:27;24.00;99.90
19252;DHT22;9760;50.944;5.304;2023-07-09T00:53:57;24.10;99.90
19252;DHT22;9760;50.944;5.304;2023-07-09T00:56:40;24.20;99.90
19252;DHT22;9760;50.944;5.304;2023-07-09T00:59:15;24.20;99.90
19252;DHT22;9760;50.944;5.304;2023-07-09T01:01:44;24.20;99.90
19252;DHT22;9760;50.944;5.304;2023-07-09T01:04:13;24.20;99.90
19252;DHT22;9760;50.944;5.304;2023-07-09T01:06:45;24.20;99.90
19252;DHT22;9760;50.944;5.304;2023-07-09T01:09:12;24.00;99.90
19252;DHT22;9760;50.944;5.304;2023-07-09T01:11:38;24.00;99.90
19252;DHT22;9760;50.944;5.304;2023-07-09T01:14:05;23.90;99.90
19252;DHT22;9760;50.944;5.304;2023-07-09T01:16:36;23.90;99.90
19252;DHT22;9760;50.944;5.304;2023-07-09T01:19:03;23.80;99.90
19252;DHT22;9760;50.944;5.304;2023-07-09T01:21:30;23.60;99.90
19252;DHT22;9760;50.944;5.304;2023-07-09T01:23:56;23.50;99.90
19252;DHT22;9760;50.944;5.304;2023-07-09T01:26:25;23.60;99.90
19252;DHT22;9760;50.944;5.304;2023-07-09T01:28:55;23.60;99.90
19252;DHT22;9760;50.944;5.304;2023-07-09T01:31:22;23.70;99.90
19252;DHT22;9760;50.944;5.304;2023-07-09T01:33:49;23.70;99.90
19252;DHT22;9760;50.944;5.304;2023-07-09T01:36:18;23.80;99.90
19252;DHT22;9760;50.944;5.304;2023-07-09T01:38:47;23.80;99.90
19252;DHT22;9760;50.944;5.304;2023-07-09T01:41:15;23.70;99.90
19252;DHT22;9760;50.944;5.304;2023-07-09T01:43:42;23.70;99.90
19252;DHT22;9760;50.944;5.304;2023-07-09T01:46:09;23.80;99.90
19252;DHT22;9760;50.944;5.304;2023-07-09T01:48:35;23.80;99.90
19252;DHT22;9760;50.944;5.304;2023-07-09T01:51:12;23.90;99.90
19252;DHT22;9760;50.944;5.304;2023-07-09T01:53:40;23.80;99.90
19252;DHT22;9760;50.944;5.304;2023-07-09T01:56:06;23.70;99.90
19252;DHT22;9760;50.944;5.304;2023-07-09T01:58:36;23.60;99.90
19252;DHT22;9760;50.944;5.304;2023-07-09T02:01:02;23.60;99.90
19252;DHT22;9760;50.944;5.304;2023-07-09T02:03:31;23.50;99.90
19252;DHT22;9760;50.944;5.304;2023-07-09T02:05:57;23.60;99.90
19252;DHT22;9760;50.944;5.304;2023-07-09T02:08:28;23.50;99.90
19252;DHT22;9760;50.944;5.304;2023-07-09T02:10:53;23.60;99.90
19252;DHT22;9760;50.944;5.304;2023-07-09T02:13:19;23.60;99.90
19252;DHT22;9760;50.944;5.304;2023-07-09T02:15:44;23.60;99.90
19252;DHT22;9760;50.944;5.304;2023-07-09T02:18:11;23.60;99.90
19252;DHT22;9760;50.944;5.304;2023-07-09T02:20:37;23.50;99.90
19252;DHT22;9760;50.944;5.304;2023-07-09T02:23:03;23.60;99.90
19252;DHT22;9760;50.944;5.304;2023-07-09T02:25:29;23.60;99.90
19252;DHT22;9760;50.944;5.304;2023-07-09T02:27:54;23.60;99.90
19252;DHT22;9760;50.944;5.304;2023-07-09T02:30:20;23.50;99.90
19252;DHT22;9760;50.944;5.304;2023-07-09T02:32:46;23.40;99.90
19252;DHT22;9760;50.944;5.304;2023-07-09T02:35:11;23.20;99.90
19252;DHT22;9760;50.944;5.304;2023-07-09T02:37:38;23.20;99.90
19252;DHT22;9760;50.944;5.304;2023-07-09T02:40:04;23.20;99.90
19252;DHT22;9760;50.944;5.304;2023-07-09T02:42:30;23.20;99.90
19252;DHT22;9760;50.944;5.304;2023-07-09T02:44:56;23.20;99.90
19252;DHT22;9760;50.944;5.304;2023-07-09T02:47:22;23.20;99.90
19252;DHT22;9760;50.944;5.304;2023-07-09T02:49:48;23.10;99.90
19252;DHT22;9760;50.944;5.304;2023-07-09T02:52:14;23.10;99.90
19252;DHT22;9760;50.944;5.304;2023-07-09T02:54:39;23.10;99.90
19252;DHT22;9760;50.944;5.304;2023-07-09T02:57:05;23.20;99.90
19252;DHT22;9760;50.944;5.304;2023-07-09T02:59:31;23.20;99.90
19252;DHT22;9760;50.944;5.304;2023-07-09T03:01:59;23.20;99.90
19252;DHT22;9760;50.944;5.304;2023-07-09T03:04:25;23.10;99.90
19252;DHT22;9760;50.944;5.304;2023-07-09T03:06:51;23.10;99.90
19252;DHT22;9760;50.944;5.304;2023-07-09T03:09:16;23.10;99.90
19252;DHT22;9760;50.944;5.304;2023-07-09T03:11:42;23.10;99.90
19252;DHT22;9760;50.944;5.304;2023-07-09T03:14:08;23.00;99.90
19252;DHT22;9760;50.944;5.304;2023-07-09T03:16:34;23.00;99.90
19252;DHT22;9760;50.944;5.304;2023-07-09T03:19:01;23.00;99.90
19252;DHT22;9760;50.944;5.304;2023-07-09T03:21:27;22.90;99.90
19252;DHT22;9760;50.944;5.304;2023-07-09T03:23:54;22.90;99.90
19252;DHT22;9760;50.944;5.304;2023-07-09T03:26:20;22.90;99.90
19252;DHT22;9760;50.944;5.304;2023-07-09T03:28:46;22.90;99.90
19252;DHT22;9760;50.944;5.304;2023-07-09T03:31:12;22.90;99.90
19252;DHT22;9760;50.944;5.304;2023-07-09T03:33:38;22.90;99.90
19252;DHT22;9760;50.944;5.304;2023-07-09T03:36:04;22.90;99.90
19252;DHT22;9760;50.944;5.304;2023-07-09T03:38:31;22.90;99.90
19252;DHT22;9760;50.944;5.304;2023-07-09T03:40:57;22.90;99.90
19252;DHT22;9760;50.944;5.304;2023-07-09T03:43:23;22.90;99.90
19252;DHT22;9760;50.944;5.304;2023-07-09T03:45:50;22.90;99.90
19252;DHT22;9760;50.944;5.304;2023-07-09T03:48:17;22.80;99.90
19252;DHT22;9760;50.944;5.304;2023-07-09T03:50:47;22.80;99.90
19252;DHT22;9760;50.944;5.304;2023-07-09T03:53:14;22.90;99.90
19252;DHT22;9760;50.944;5.304;2023-07-09T03:55:40;22.90;99.90
19252;DHT22;9760;50.944;5.304;2023-07-09T03:58:06;22.80;99.90
19252;DHT22;9760;50.944;5.304;2023-07-09T04:00:33;22.80;99.90
19252;DHT22;9760;50.944;5.304;2023-07-09T04:02:59;22.80;99.90
19252;DHT22;9760;50.944;5.304;2023-07-09T04:05:26;22.90;99.90
19252;DHT22;9760;50.944;5.304;2023-07-09T04:07:52;22.90;99.90
19252;DHT22;9760;50.944;5.304;2023-07-09T04:10:18;22.90;99.90
19252;DHT22;9760;50.944;5.304;2023-07-09T04:12:44;23.00;99.90
19252;DHT22;9760;50.944;5.304;2023-07-09T04:15:11;23.00;99.90
19252;DHT22;9760;50.944;5.304;2023-07-09T04:17:39;22.90;99.90
19252;DHT22;9760;50.944;5.304;2023-07-09T04:20:06;22.90;99.90
19252;DHT22;9760;50.944;5.304;2023-07-09T04:22:33;23.00;99.90
19252;DHT22;9760;50.944;5.304;2023-07-09T04:25:00;23.00;99.90
19252;DHT22;9760;50.944;5.304;2023-07-09T04:27:26;23.00;99.90
19252;DHT22;9760;50.944;5.304;2023-07-09T04:29:55;23.00;99.90
19252;DHT22;9760;50.944;5.304;2023-07-09T04:32:21;23.10;99.90
19252;DHT22;9760;50.944;5.304;2023-07-09T04:34:47;23.10;99.90
19252;DHT22;9760;50.944;5.304;2023-07-09T04:37:13;23.00;99.90
19252;DHT22;9760;50.944;5.304;2023-07-09T04:39:39;22.90;99.90
19252;DHT22;9760;50.944;5.304;2023-07-09T04:42:06;22.80;99.90
19252;DHT22;9760;50.944;5.304;2023-07-09T04:44:36;22.90;99.90
19252;DHT22;9760;50.944;5.304;2023-07-09T04:47:01;23.00;99.90
19252;DHT22;9760;50.944;5.304;2023-07-09T04:49:27;23.00;99.90
19252;DHT22;9760;50.944;5.304;2023-07-09T04:51:53;23.00;99.90
19252;DHT22;9760;50.944;5.304;2023-07-09T04:54:19;22.90;99.90
19252;DHT22;9760;50.944;5.304;2023-07-09T04:56:48;22.90;99.90
19252;DHT22;9760;50.944;5.304;2023-07-09T04:59:14;22.90;99.90
19252;DHT22;9760;50.944;5.304;2023-07-09T05:01:40;23.00;99.90
19252;DHT22;9760;50.944;5.304;2023-07-09T05:04:06;23.10;99.90
19252;DHT22;9760;50.944;5.304;2023-07-09T05:06:33;23.10;99.90
19252;DHT22;9760;50.944;5.304;2023-07-09T05:08:59;23.10;99.90
19252;DHT22;9760;50.944;5.304;2023-07-09T05:11:25;23.20;99.90
19252;DHT22;9760;50.944;5.304;2023-07-09T05:13:50;23.30;99.90
19252;DHT22;9760;50.944;5.304;2023-07-09T05:16:16;23.30;99.90
19252;DHT22;9760;50.944;5.304;2023-07-09T05:18:44;23.30;99.90
19252;DHT22;9760;50.944;5.304;2023-07-09T05:21:11;23.50;99.90
19252;DHT22;9760;50.944;5.304;2023-07-09T05:23:36;23.40;99.90
19252;DHT22;9760;50.944;5.304;2023-07-09T05:26:03;23.50;99.90
19252;DHT22;9760;50.944;5.304;2023-07-09T05:28:30;23.60;99.90
19252;DHT22;9760;50.944;5.304;2023-07-09T05:30:58;23.60;99.90
19252;DHT22;9760;50.944;5.304;2023-07-09T05:33:24;23.60;99.90
19252;DHT22;9760;50.944;5.304;2023-07-09T05:35:49;23.60;99.90
19252;DHT22;9760;50.944;5.304;2023-07-09T05:38:15;23.70;99.90
19252;DHT22;9760;50.944;5.304;2023-07-09T05:40:42;23.90;99.90
19252;DHT22;9760;50.944;5.304;2023-07-09T05:43:08;24.00;99.90
19252;DHT22;9760;50.944;5.304;2023-07-09T05:45:34;24.00;99.90
19252;DHT22;9760;50.944;5.304;2023-07-09T05:48:00;24.10;99.90
19252;DHT22;9760;50.944;5.304;2023-07-09T05:50:26;24.20;99.90
19252;DHT22;9760;50.944;5.304;2023-07-09T05:52:52;24.20;99.90
19252;DHT22;9760;50.944;5.304;2023-07-09T05:55:18;24.30;99.90
19252;DHT22;9760;50.944;5.304;2023-07-09T05:57:43;24.50;99.90
19252;DHT22;9760;50.944;5.304;2023-07-09T06:00:09;24.60;99.90
19252;DHT22;9760;50.944;5.304;2023-07-09T06:02:35;24.80;99.90
19252;DHT22;9760;50.944;5.304;2023-07-09T06:05:01;24.90;99.90
19252;DHT22;9760;50.944;5.304;2023-07-09T06:07:27;25.00;99.90
19252;DHT22;9760;50.944;5.304;2023-07-09T06:09:53;25.10;99.90
19252;DHT22;9760;50.944;5.304;2023-07-09T06:12:18;25.30;99.90
19252;DHT22;9760;50.944;5.304;2023-07-09T06:14:45;25.30;99.90
19252;DHT22;9760;50.944;5.304;2023-07-09T06:17:11;25.50;99.90
19252;DHT22;9760;50.944;5.304;2023-07-09T06:19:37;25.50;99.90
19252;DHT22;9760;50.944;5.304;2023-07-09T06:22:03;25.60;99.90
19252;DHT22;9760;50.944;5.304;2023-07-09T06:24:29;25.70;99.90
19252;DHT22;9760;50.944;5.304;2023-07-09T06:26:54;25.80;99.90
19252;DHT22;9760;50.944;5.304;2023-07-09T06:29:20;25.90;99.90
19252;DHT22;9760;50.944;5.304;2023-07-09T06:31:46;25.90;99.90
19252;DHT22;9760;50.944;5.304;2023-07-09T06:34:12;26.00;99.90
19252;DHT22;9760;50.944;5.304;2023-07-09T06:36:37;26.00;99.90
19252;DHT22;9760;50.944;5.304;2023-07-09T06:39:03;26.00;99.90
19252;DHT22;9760;50.944;5.304;2023-07-09T06:41:29;26.10;99.90
19252;DHT22;9760;50.944;5.304;2023-07-09T06:43:54;26.20;99.90
19252;DHT22;9760;50.944;5.304;2023-07-09T06:46:21;26.30;99.90
19252;DHT22;9760;50.944;5.304;2023-07-09T06:48:46;26.40;99.90
19252;DHT22;9760;50.944;5.304;2023-07-09T06:51:13;26.40;99.90
19252;DHT22;9760;50.944;5.304;2023-07-09T06:53:38;26.40;99.90
19252;DHT22;9760;50.944;5.304;2023-07-09T06:56:05;26.50;99.90
19252;DHT22;9760;50.944;5.304;2023-07-09T06:58:32;26.60;99.90
19252;DHT22;9760;50.944;5.304;2023-07-09T07:01:01;26.60;99.90
19252;DHT22;9760;50.944;5.304;2023-07-09T07:03:29;26.70;99.90
19252;DHT22;9760;50.944;5.304;2023-07-09T07:05:55;26.80;99.90
19252;DHT22;9760;50.944;5.304;2023-07-09T07:08:23;26.90;99.90
19252;DHT22;9760;50.944;5.304;2023-07-09T07:10:49;27.00;99.90
19252;DHT22;9760;50.944;5.304;2023-07-09T07:13:16;26.90;99.90
19252;DHT22;9760;50.944;5.304;2023-07-09T07:15:47;26.90;99.90
19252;DHT22;9760;50.944;5.304;2023-07-09T07:18:14;26.90;99.90
19252;DHT22;9760;50.944;5.304;2023-07-09T07:20:39;27.00;99.90
19252;DHT22;9760;50.944;5.304;2023-07-09T07:23:05;26.90;99.90
19252;DHT22;9760;50.944;5.304;2023-07-09T07:25:32;26.90;99.90
19252;DHT22;9760;50.944;5.304;2023-07-09T07:27:58;26.90;99.90
19252;DHT22;9760;50.944;5.304;2023-07-09T07:30:24;26.90;99.90
19252;DHT22;9760;50.944;5.304;2023-07-09T07:32:49;27.10;99.90
19252;DHT22;9760;50.944;5.304;2023-07-09T07:35:16;27.00;99.90
19252;DHT22;9760;50.944;5.304;2023-07-09T07:37:42;27.00;99.90
19252;DHT22;9760;50.944;5.304;2023-07-09T07:40:09;27.00;99.90
19252;DHT22;9760;50.944;5.304;2023-07-09T07:42:35;27.10;99.90
19252;DHT22;9760;50.944;5.304;2023-07-09T07:45:01;27.00;99.90
19252;DHT22;9760;50.944;5.304;2023-07-09T07:47:27;27.00;99.90
19252;DHT22;9760;50.944;5.304;2023-07-09T07:49:53;27.00;99.90
19252;DHT22;9760;50.944;5.304;2023-07-09T07:52:19;27.00;99.90
19252;DHT22;9760;50.944;5.304;2023-07-09T07:54:45;27.10;99.90
19252;DHT22;9760;50.944;5.304;2023-07-09T07:57:11;27.30;99.90
19252;DHT22;9760;50.944;5.304;2023-07-09T07:59:38;27.30;99.90
19252;DHT22;9760;50.944;5.304;2023-07-09T08:02:05;27.20;99.90
19252;DHT22;9760;50.944;5.304;2023-07-09T08:04:31;27.40;99.90
19252;DHT22;9760;50.944;5.304;2023-07-09T08:06:57;27.50;99.90
19252;DHT22;9760;50.944;5.304;2023-07-09T08:09:24;27.70;99.90
19252;DHT22;9760;50.944;5.304;2023-07-09T08:11:49;27.70;99.90
19252;DHT22;9760;50.944;5.304;2023-07-09T08:14:15;27.70;99.90
19252;DHT22;9760;50.944;5.304;2023-07-09T08:16:41;27.70;99.90
19252;DHT22;9760;50.944;5.304;2023-07-09T08:19:06;27.80;99.90
19252;DHT22;9760;50.944;5.304;2023-07-09T08:21:32;27.90;99.90
19252;DHT22;9760;50.944;5.304;2023-07-09T08:23:58;28.20;99.90
19252;DHT22;9760;50.944;5.304;2023-07-09T08:26:23;28.30;99.90
19252;DHT22;9760;50.944;5.304;2023-07-09T08:28:53;28.20;99.90
19252;DHT22;9760;50.944;5.304;2023-07-09T08:31:18;28.30;99.90
19252;DHT22;9760;50.944;5.304;2023-07-09T08:33:44;28.50;99.90
19252;DHT22;9760;50.944;5.304;2023-07-09T08:36:10;28.50;99.90
19252;DHT22;9760;50.944;5.304;2023-07-09T08:38:36;28.40;99.90
19252;DHT22;9760;50.944;5.304;2023-07-09T08:46:20;28.40;99.90
19252;DHT22;9760;50.944;5.304;2023-07-09T08:48:51;28.40;99.90
19252;DHT22;9760;50.944;5.304;2023-07-09T08:51:38;28.40;99.90
19252;DHT22;9760;50.944;5.304;2023-07-09T08:54:13;28.50;99.90
19252;DHT22;9760;50.944;5.304;2023-07-09T08:56:40;28.70;99.90
19252;DHT22;9760;50.944;5.304;2023-07-09T08:59:09;28.80;99.90
19252;DHT22;9760;50.944;5.304;2023-07-09T09:01:52;29.00;99.90
19252;DHT22;9760;50.944;5.304;2023-07-09T09:04:34;29.20;99.90
19252;DHT22;9760;50.944;5.304;2023-07-09T09:07:31;29.30;99.90
19252;DHT22;9760;50.944;5.304;2023-07-09T09:10:01;29.40;99.90
19252;DHT22;9760;50.944;5.304;2023-07-09T09:12:35;29.30;99.90
19252;DHT22;9760;50.944;5.304;2023-07-09T09:15:16;29.60;99.90
19252;DHT22;9760;50.944;5.304;2023-07-09T09:17:43;29.70;99.90
19252;DHT22;9760;50.944;5.304;2023-07-09T09:20:15;29.80;99.90
19252;DHT22;9760;50.944;5.304;2023-07-09T09:25:30;29.60;99.90
19252;DHT22;9760;50.944;5.304;2023-07-09T09:27:58;29.70;99.90
19252;DHT22;9760;50.944;5.304;2023-07-09T09:30:24;29.90;99.90
19252;DHT22;9760;50.944;5.304;2023-07-09T09:35:29;30.30;99.90
19252;DHT22;9760;50.944;5.304;2023-07-09T09:37:57;30.50;99.90
19252;DHT22;9760;50.944;5.304;2023-07-09T09:40:26;30.60;99.90
19252;DHT22;9760;50.944;5.304;2023-07-09T09:42:57;30.60;99.90
19252;DHT22;9760;50.944;5.304;2023-07-09T09:45:35;30.70;99.90
19252;DHT22;9760;50.944;5.304;2023-07-09T09:48:05;30.70;99.90
19252;DHT22;9760;50.944;5.304;2023-07-09T09:50:35;30.60;99.90
19252;DHT22;9760;50.944;5.304;2023-07-09T09:53:01;30.60;99.90
19252;DHT22;9760;50.944;5.304;2023-07-09T09:55:31;30.60;99.90
19252;DHT22;9760;50.944;5.304;2023-07-09T09:57:58;30.70;99.90
19252;DHT22;9760;50.944;5.304;2023-07-09T10:00:27;30.90;99.90
19252;DHT22;9760;50.944;5.304;2023-07-09T10:03:02;31.20;99.90
19252;DHT22;9760;50.944;5.304;2023-07-09T10:05:55;31.40;99.90
19252;DHT22;9760;50.944;5.304;2023-07-09T10:11:41;31.40;99.90
19252;DHT22;9760;50.944;5.304;2023-07-09T10:14:32;31.50;99.90
19252;DHT22;9760;50.944;5.304;2023-07-09T10:19:55;31.80;99.90
19252;DHT22;9760;50.944;5.304;2023-07-09T10:27:58;32.00;99.90
19252;DHT22;9760;50.944;5.304;2023-07-09T10:33:11;32.60;99.90
19252;DHT22;9760;50.944;5.304;2023-07-09T10:38:28;33.00;99.90
19252;DHT22;9760;50.944;5.304;2023-07-09T10:41:00;33.10;99.90
19252;DHT22;9760;50.944;5.304;2023-07-09T10:43:51;33.30;99.90
19252;DHT22;9760;50.944;5.304;2023-07-09T10:46:23;33.10;99.90
19252;DHT22;9760;50.944;5.304;2023-07-09T10:48:51;33.10;99.90
19252;DHT22;9760;50.944;5.304;2023-07-09T10:51:40;33.20;99.90
19252;DHT22;9760;50.944;5.304;2023-07-09T10:56:56;33.70;99.90
19252;DHT22;9760;50.944;5.304;2023-07-09T10:59:31;33.60;99.90
19252;DHT22;9760;50.944;5.304;2023-07-09T11:02:06;33.80;99.90
19252;DHT22;9760;50.944;5.304;2023-07-09T11:04:54;34.10;99.90
19252;DHT22;9760;50.944;5.304;2023-07-09T11:09:53;34.10;99.90
19252;DHT22;9760;50.944;5.304;2023-07-09T11:12:36;33.90;99.90
19252;DHT22;9760;50.944;5.304;2023-07-09T11:15:20;33.70;99.90
19252;DHT22;9760;50.944;5.304;2023-07-09T11:17:48;33.60;99.90
19252;DHT22;9760;50.944;5.304;2023-07-09T11:20:25;33.40;99.90
19252;DHT22;9760;50.944;5.304;2023-07-09T11:25:28;33.20;99.90
19252;DHT22;9760;50.944;5.304;2023-07-09T11:28:05;33.00;99.90
19252;DHT22;9760;50.944;5.304;2023-07-09T11:30:31;32.90;99.90
19252;DHT22;9760;50.944;5.304;2023-07-09T11:33:04;32.90;99.90
19252;DHT22;9760;50.944;5.304;2023-07-09T11:35:48;33.00;99.90
19252;DHT22;9760;50.944;5.304;2023-07-09T11:38:23;32.80;99.90
19252;DHT22;9760;50.944;5.304;2023-07-09T11:40:52;32.80;99.90
19252;DHT22;9760;50.944;5.304;2023-07-09T11:43:32;32.60;99.90
19252;DHT22;9760;50.944;5.304;2023-07-09T11:46:14;32.40;99.90
19252;DHT22;9760;50.944;5.304;2023-07-09T11:48:42;32.30;99.90
19252;DHT22;9760;50.944;5.304;2023-07-09T11:51:15;32.20;99.90
19252;DHT22;9760;50.944;5.304;2023-07-09T11:53:46;32.20;99.90
19252;DHT22;9760;50.944;5.304;2023-07-09T11:56:12;32.20;99.90
19252;DHT22;9760;50.944;5.304;2023-07-09T11:58:54;31.80;99.90
19252;DHT22;9760;50.944;5.304;2023-07-09T12:01:44;31.70;99.90
19252;DHT22;9760;50.944;5.304;2023-07-09T12:04:16;31.50;99.90
19252;DHT22;9760;50.944;5.304;2023-07-09T12:06:42;31.00;99.90
19252;DHT22;9760;50.944;5.304;2023-07-09T12:09:20;30.70;99.90
19252;DHT22;9760;50.944;5.304;2023-07-09T12:11:48;30.50;99.90
19252;DHT22;9760;50.944;5.304;2023-07-09T12:14:20;30.40;99.90
19252;DHT22;9760;50.944;5.304;2023-07-09T12:16:51;30.40;99.90
19252;DHT22;9760;50.944;5.304;2023-07-09T12:19:19;30.30;99.90
19252;DHT22;9760;50.944;5.304;2023-07-09T12:21:50;30.10;99.90
19252;DHT22;9760;50.944;5.304;2023-07-09T12:27:20;29.70;99.90
19252;DHT22;9760;50.944;5.304;2023-07-09T12:29:46;29.50;99.90
19252;DHT22;9760;50.944;5.304;2023-07-09T12:32:17;29.30;99.90
19252;DHT22;9760;50.944;5.304;2023-07-09T12:34:49;29.20;99.90
19252;DHT22;9760;50.944;5.304;2023-07-09T12:37:15;28.90;99.90
19252;DHT22;9760;50.944;5.304;2023-07-09T12:39:41;28.80;99.90
19252;DHT22;9760;50.944;5.304;2023-07-09T12:42:16;28.60;99.90
19252;DHT22;9760;50.944;5.304;2023-07-09T12:44:43;28.40;99.90
19252;DHT22;9760;50.944;5.304;2023-07-09T12:47:13;28.30;99.90
19252;DHT22;9760;50.944;5.304;2023-07-09T12:49:42;28.10;99.90
19252;DHT22;9760;50.944;5.304;2023-07-09T12:52:20;28.00;99.90
19252;DHT22;9760;50.944;5.304;2023-07-09T12:55:00;27.70;99.90
19252;DHT22;9760;50.944;5.304;2023-07-09T12:57:26;27.50;99.90
19252;DHT22;9760;50.944;5.304;2023-07-09T12:59:54;27.30;99.90
19252;DHT22;9760;50.944;5.304;2023-07-09T13:02:25;27.20;99.90
19252;DHT22;9760;50.944;5.304;2023-07-09T13:05:02;26.90;99.90
19252;DHT22;9760;50.944;5.304;2023-07-09T13:07:38;26.60;99.90
19252;DHT22;9760;50.944;5.304;2023-07-09T13:10:14;26.10;99.90
19252;DHT22;9760;50.944;5.304;2023-07-09T13:12:40;25.70;99.90
19252;DHT22;9760;50.944;5.304;2023-07-09T13:15:26;24.20;99.90
19252;DHT22;9760;50.944;5.304;2023-07-09T13:18:00;23.40;99.90
19252;DHT22;9760;50.944;5.304;2023-07-09T13:20:28;23.10;99.90
19252;DHT22;9760;50.944;5.304;2023-07-09T13:22:55;23.00;99.90
19252;DHT22;9760;50.944;5.304;2023-07-09T13:25:21;23.00;99.90
19252;DHT22;9760;50.944;5.304;2023-07-09T13:27:46;22.90;99.90
19252;DHT22;9760;50.944;5.304;2023-07-09T13:30:12;22.80;99.90
19252;DHT22;9760;50.944;5.304;2023-07-09T13:32:38;22.90;99.90
19252;DHT22;9760;50.944;5.304;2023-07-09T13:35:17;22.90;99.90
19252;DHT22;9760;50.944;5.304;2023-07-09T13:37:44;23.00;99.90
19252;DHT22;9760;50.944;5.304;2023-07-09T13:40:12;23.00;99.90
19252;DHT22;9760;50.944;5.304;2023-07-09T13:42:40;23.10;99.90
19252;DHT22;9760;50.944;5.304;2023-07-09T13:45:16;23.20;99.90
19252;DHT22;9760;50.944;5.304;2023-07-09T13:47:41;23.40;99.90
19252;DHT22;9760;50.944;5.304;2023-07-09T13:50:07;23.40;99.90
19252;DHT22;9760;50.944;5.304;2023-07-09T13:52:34;23.60;99.90
19252;DHT22;9760;50.944;5.304;2023-07-09T13:55:00;23.80;99.90
19252;DHT22;9760;50.944;5.304;2023-07-09T13:57:25;24.00;99.90
19252;DHT22;9760;50.944;5.304;2023-07-09T13:59:51;24.00;99.90
19252;DHT22;9760;50.944;5.304;2023-07-09T14:02:30;24.30;99.90
19252;DHT22;9760;50.944;5.304;2023-07-09T14:05:02;24.40;99.90
19252;DHT22;9760;50.944;5.304;2023-07-09T14:07:36;24.60;99.90
19252;DHT22;9760;50.944;5.304;2023-07-09T14:10:05;24.60;99.90
19252;DHT22;9760;50.944;5.304;2023-07-09T14:12:31;24.60;99.90
19252;DHT22;9760;50.944;5.304;2023-07-09T14:14:59;24.70;99.90
19252;DHT22;9760;50.944;5.304;2023-07-09T14:17:26;24.70;99.90
19252;DHT22;9760;50.944;5.304;2023-07-09T14:19:52;24.80;99.90
19252;DHT22;9760;50.944;5.304;2023-07-09T14:24:43;24.90;99.90
19252;DHT22;9760;50.944;5.304;2023-07-09T14:27:10;24.80;99.90
19252;DHT22;9760;50.944;5.304;2023-07-09T14:29:35;25.00;99.90
19252;DHT22;9760;50.944;5.304;2023-07-09T14:32:01;24.90;99.90
19252;DHT22;9760;50.944;5.304;2023-07-09T14:34:29;25.10;99.90
19252;DHT22;9760;50.944;5.304;2023-07-09T14:36:59;25.20;99.90
19252;DHT22;9760;50.944;5.304;2023-07-09T14:39:27;25.30;99.90
19252;DHT22;9760;50.944;5.304;2023-07-09T14:41:53;25.30;99.90
19252;DHT22;9760;50.944;5.304;2023-07-09T14:44:23;25.60;99.90
19252;DHT22;9760;50.944;5.304;2023-07-09T14:46:50;25.90;99.90
19252;DHT22;9760;50.944;5.304;2023-07-09T14:49:18;25.90;99.90
19252;DHT22;9760;50.944;5.304;2023-07-09T14:51:44;26.00;99.90
19252;DHT22;9760;50.944;5.304;2023-07-09T14:54:21;26.40;99.90
19252;DHT22;9760;50.944;5.304;2023-07-09T14:56:48;26.70;99.90
19252;DHT22;9760;50.944;5.304;2023-07-09T14:59:15;27.00;99.90
19252;DHT22;9760;50.944;5.304;2023-07-09T15:01:41;27.20;99.90
19252;DHT22;9760;50.944;5.304;2023-07-09T15:04:28;27.20;99.90
19252;DHT22;9760;50.944;5.304;2023-07-09T15:06:55;27.50;99.90
19252;DHT22;9760;50.944;5.304;2023-07-09T15:09:23;27.60;99.90
19252;DHT22;9760;50.944;5.304;2023-07-09T15:11:52;27.80;99.90
19252;DHT22;9760;50.944;5.304;2023-07-09T15:14:18;28.10;99.90
19252;DHT22;9760;50.944;5.304;2023-07-09T15:16:46;27.90;99.90
19252;DHT22;9760;50.944;5.304;2023-07-09T15:19:14;28.00;99.90
19252;DHT22;9760;50.944;5.304;2023-07-09T15:21:39;28.10;99.90
19252;DHT22;9760;50.944;5.304;2023-07-09T15:24:10;28.10;99.90
19252;DHT22;9760;50.944;5.304;2023-07-09T15:26:36;28.10;99.90
19252;DHT22;9760;50.944;5.304;2023-07-09T15:29:01;27.90;99.90
19252;DHT22;9760;50.944;5.304;2023-07-09T15:31:28;27.70;99.90
19252;DHT22;9760;50.944;5.304;2023-07-09T15:33:54;27.60;99.90
19252;DHT22;9760;50.944;5.304;2023-07-09T15:36:19;28.20;99.90
19252;DHT22;9760;50.944;5.304;2023-07-09T15:38:45;29.90;99.90
19252;DHT22;9760;50.944;5.304;2023-07-09T15:41:12;31.10;99.90
19252;DHT22;9760;50.944;5.304;2023-07-09T15:43:38;32.20;99.90
19252;DHT22;9760;50.944;5.304;2023-07-09T15:46:04;32.40;99.90
19252;DHT22;9760;50.944;5.304;2023-07-09T15:48:35;33.80;99.90
19252;DHT22;9760;50.944;5.304;2023-07-09T15:51:03;34.60;99.90
19252;DHT22;9760;50.944;5.304;2023-07-09T15:53:30;34.90;99.90
19252;DHT22;9760;50.944;5.304;2023-07-09T15:56:29;34.50;99.90
19252;DHT22;9760;50.944;5.304;2023-07-09T15:58:56;35.30;99.90
19252;DHT22;9760;50.944;5.304;2023-07-09T16:01:23;36.10;99.90
19252;DHT22;9760;50.944;5.304;2023-07-09T16:03:57;36.60;99.90
19252;DHT22;9760;50.944;5.304;2023-07-09T16:06:24;36.70;99.90
19252;DHT22;9760;50.944;5.304;2023-07-09T16:08:49;36.50;99.90
19252;DHT22;9760;50.944;5.304;2023-07-09T16:11:21;36.80;99.90
19252;DHT22;9760;50.944;5.304;2023-07-09T16:13:47;36.40;99.90
19252;DHT22;9760;50.944;5.304;2023-07-09T16:16:22;37.20;99.90
19252;DHT22;9760;50.944;5.304;2023-07-09T16:18:48;36.90;99.90
19252;DHT22;9760;50.944;5.304;2023-07-09T16:21:24;36.70;99.90
19252;DHT22;9760;50.944;5.304;2023-07-09T16:23:51;36.10;99.90
19252;DHT22;9760;50.944;5.304;2023-07-09T16:26:17;35.30;99.90
19252;DHT22;9760;50.944;5.304;2023-07-09T16:28:43;34.70;99.90
19252;DHT22;9760;50.944;5.304;2023-07-09T16:31:09;34.90;99.90
19252;DHT22;9760;50.944;5.304;2023-07-09T16:33:35;35.60;99.90
19252;DHT22;9760;50.944;5.304;2023-07-09T16:36:01;36.30;99.90
19252;DHT22;9760;50.944;5.304;2023-07-09T16:38:32;35.40;99.90